sensor_id;sensor_type;location;lat;lon;timestamp;temperature;humidity
5962;DHT22;3007;50.770;0.250;2023-11-21T00:01:32;10.40;99.90
5962;DHT22;3007;50.770;0.250;2023-11-21T00:03:59;10.30;99.90
5962;DHT22;3007;50.770;0.250;2023-11-21T00:06:27;10.40;99.90
5962;DHT22;3007;50.770;0.250;2023-11-21T00:08:55;10.30;99.90
5962;DHT22;3007;50.770;0.250;2023-11-21T00:11:22;10.40;99.90
5962;DHT22;3007;50.770;0.250;2023-11-21T00:13:50;10.40;99.90
5962;DHT22;3007;50.770;0.250;2023-11-21T00:16:17;10.40;99.90
5962;DHT22;3007;50.770;0.250;2023-11-21T00:18:45;10.30;99.90
5962;DHT22;3007;50.770;0.250;2023-11-21T00:21:12;10.30;99.90
5962;DHT22;3007;50.770;0.250;2023-11-21T00:23:39;10.30;99.90
5962;DHT22;3007;50.770;0.250;2023-11-21T00:26:06;10.30;99.90
5962;DHT22;3007;50.770;0.250;2023-11-21T00:28:33;10.30;99.90
5962;DHT22;3007;50.770;0.250;2023-11-21T00:31:00;10.30;99.90
5962;DHT22;3007;50.770;0.250;2023-11-21T00:33:27;9.90;99.90
5962;DHT22;3007;50.770;0.250;2023-11-21T00:35:55;10.30;99.90
5962;DHT22;3007;50.770;0.250;2023-11-21T00:38:22;10.30;99.90
5962;DHT22;3007;50.770;0.250;2023-11-21T00:40:49;10.40;99.90
5962;DHT22;3007;50.770;0.250;2023-11-21T00:43:18;10.30;99.90
5962;DHT22;3007;50.770;0.250;2023-11-21T00:45:45;10.30;99.90
5962;DHT22;3007;50.770;0.250;2023-11-21T00:48:14;10.20;99.90
5962;DHT22;3007;50.770;0.250;2023-11-21T00:50:41;10.20;99.90
5962;DHT22;3007;50.770;0.250;2023-11-21T00:53:09;10.20;99.90
5962;DHT22;3007;50.770;0.250;2023-11-21T00:55:36;10.20;99.90
5962;DHT22;3007;50.770;0.250;2023-11-21T00:58:05;10.20;99.90
5962;DHT22;3007;50.770;0.250;2023-11-21T01:00:32;10.20;99.90
5962;DHT22;3007;50.770;0.250;2023-11-21T01:02:59;10.20;99.90
5962;DHT22;3007;50.770;0.250;2023-11-21T01:05:26;10.20;99.90
5962;DHT22;3007;50.770;0.250;2023-11-21T01:07:53;10.20;99.90
5962;DHT22;3007;50.770;0.250;2023-11-21T01:10:21;10.30;99.90
5962;DHT22;3007;50.770;0.250;2023-11-21T01:12:48;10.30;99.90
5962;DHT22;3007;50.770;0.250;2023-11-21T01:15:15;10.30;99.90
5962;DHT22;3007;50.770;0.250;2023-11-21T01:17:42;10.20;99.90
5962;DHT22;3007;50.770;0.250;2023-11-21T01:20:10;10.20;99.90
5962;DHT22;3007;50.770;0.250;2023-11-21T01:22:38;10.20;99.90
5962;DHT22;3007;50.770;0.250;2023-11-21T01:25:05;10.30;99.90
5962;DHT22;3007;50.770;0.250;2023-11-21T01:27:34;10.30;99.90
5962;DHT22;3007;50.770;0.250;2023-11-21T01:30:02;10.40;99.90
5962;DHT22;3007;50.770;0.250;2023-11-21T01:32:29;10.40;99.90
5962;DHT22;3007;50.770;0.250;2023-11-21T01:34:55;10.40;99.90
5962;DHT22;3007;50.770;0.250;2023-11-21T01:37:22;10.40;99.90
5962;DHT22;3007;50.770;0.250;2023-11-21T01:39:49;10.50;99.90
5962;DHT22;3007;50.770;0.250;2023-11-21T01:42:16;10.50;99.90
5962;DHT22;3007;50.770;0.250;2023-11-21T01:44:45;10.50;99.90
5962;DHT22;3007;50.770;0.250;2023-11-21T01:47:13;10.50;99.90
5962;DHT22;3007;50.770;0.250;2023-11-21T01:49:43;10.50;99.90
5962;DHT22;3007;50.770;0.250;2023-11-21T01:52:12;10.50;99.90
5962;DHT22;3007;50.770;0.250;2023-11-21T01:54:41;10.50;99.90
5962;DHT22;3007;50.770;0.250;2023-11-21T01:57:08;10.50;99.90
5962;DHT22;3007;50.770;0.250;2023-11-21T01:59:36;10.50;99.90
5962;DHT22;3007;50.770;0.250;2023-11-21T02:02:05;10.50;99.90
5962;DHT22;3007;50.770;0.250;2023-11-21T02:04:32;10.50;99.90
5962;DHT22;3007;50.770;0.250;2023-11-21T02:06:59;10.50;99.90
5962;DHT22;3007;50.770;0.250;2023-11-21T02:09:27;10.50;99.90
5962;DHT22;3007;50.770;0.250;2023-11-21T02:11:55;10.60;99.90
5962;DHT22;3007;50.770;0.250;2023-11-21T02:14:21;10.60;99.90
5962;DHT22;3007;50.770;0.250;2023-11-21T02:16:49;10.50;99.90
5962;DHT22;3007;50.770;0.250;2023-11-21T02:19:20;10.50;99.90
5962;DHT22;3007;50.770;0.250;2023-11-21T02:21:49;10.50;99.90
5962;DHT22;3007;50.770;0.250;2023-11-21T02:24:19;10.50;99.90
5962;DHT22;3007;50.770;0.250;2023-11-21T02:26:47;10.50;99.90
5962;DHT22;3007;50.770;0.250;2023-11-21T02:29:17;10.60;99.90
5962;DHT22;3007;50.770;0.250;2023-11-21T02:31:47;10.50;99.90
5962;DHT22;3007;50.770;0.250;2023-11-21T02:34:15;10.50;99.90
5962;DHT22;3007;50.770;0.250;2023-11-21T02:36:42;10.50;99.90
5962;DHT22;3007;50.770;0.250;2023-11-21T02:39:09;10.50;99.90
5962;DHT22;3007;50.770;0.250;2023-11-21T02:41:38;10.50;99.90
5962;DHT22;3007;50.770;0.250;2023-11-21T02:44:06;10.50;99.90
5962;DHT22;3007;50.770;0.250;2023-11-21T02:46:33;10.50;99.90
5962;DHT22;3007;50.770;0.250;2023-11-21T02:49:00;10.40;99.90
5962;DHT22;3007;50.770;0.250;2023-11-21T02:51:28;10.40;99.90
5962;DHT22;3007;50.770;0.250;2023-11-21T02:53:55;10.40;99.90
5962;DHT22;3007;50.770;0.250;2023-11-21T02:56:24;10.40;99.90
5962;DHT22;3007;50.770;0.250;2023-11-21T02:58:55;10.30;99.90
5962;DHT22;3007;50.770;0.250;2023-11-21T03:01:23;10.30;99.90
5962;DHT22;3007;50.770;0.250;2023-11-21T03:03:50;10.20;99.90
5962;DHT22;3007;50.770;0.250;2023-11-21T03:06:18;10.20;99.90
5962;DHT22;3007;50.770;0.250;2023-11-21T03:08:45;10.20;99.90
5962;DHT22;3007;50.770;0.250;2023-11-21T03:11:12;10.30;99.90
5962;DHT22;3007;50.770;0.250;2023-11-21T03:13:39;10.30;99.90
5962;DHT22;3007;50.770;0.250;2023-11-21T03:16:09;10.30;99.90
5962;DHT22;3007;50.770;0.250;2023-11-21T03:18:36;10.30;99.90
5962;DHT22;3007;50.770;0.250;2023-11-21T03:21:03;10.40;99.90
5962;DHT22;3007;50.770;0.250;2023-11-21T03:23:30;10.40;99.90
5962;DHT22;3007;50.770;0.250;2023-11-21T03:25:57;10.40;99.90
5962;DHT22;3007;50.770;0.250;2023-11-21T03:28:25;10.50;99.90
5962;DHT22;3007;50.770;0.250;2023-11-21T03:30:52;10.50;99.90
5962;DHT22;3007;50.770;0.250;2023-11-21T03:33:20;10.60;99.90
5962;DHT22;3007;50.770;0.250;2023-11-21T03:35:47;10.60;99.90
5962;DHT22;3007;50.770;0.250;2023-11-21T03:38:15;10.70;99.90
5962;DHT22;3007;50.770;0.250;2023-11-21T03:40:42;10.70;99.90
5962;DHT22;3007;50.770;0.250;2023-11-21T03:43:09;10.70;99.90
5962;DHT22;3007;50.770;0.250;2023-11-21T03:45:36;10.70;99.90
5962;DHT22;3007;50.770;0.250;2023-11-21T03:48:07;10.70;99.90
5962;DHT22;3007;50.770;0.250;2023-11-21T03:50:35;10.70;99.90
5962;DHT22;3007;50.770;0.250;2023-11-21T03:53:02;10.80;99.90
5962;DHT22;3007;50.770;0.250;2023-11-21T03:55:30;10.80;99.90
5962;DHT22;3007;50.770;0.250;2023-11-21T03:57:57;10.80;99.90
5962;DHT22;3007;50.770;0.250;2023-11-21T04:00:25;10.80;99.90
5962;DHT22;3007;50.770;0.250;2023-11-21T04:02:52;11.30;99.90
5962;DHT22;3007;50.770;0.250;2023-11-21T04:05:20;10.90;99.90
5962;DHT22;3007;50.770;0.250;2023-11-21T04:07:49;10.90;99.90
5962;DHT22;3007;50.770;0.250;2023-11-21T04:10:17;10.90;99.90
5962;DHT22;3007;50.770;0.250;2023-11-21T04:12:44;10.90;99.90
5962;DHT22;3007;50.770;0.250;2023-11-21T04:15:12;11.00;99.90
5962;DHT22;3007;50.770;0.250;2023-11-21T04:17:39;11.00;99.90
5962;DHT22;3007;50.770;0.250;2023-11-21T04:20:08;11.00;99.90
5962;DHT22;3007;50.770;0.250;2023-11-21T04:22:37;11.00;99.90
5962;DHT22;3007;50.770;0.250;2023-11-21T04:25:08;11.00;99.90
5962;DHT22;3007;50.770;0.250;2023-11-21T04:27:36;11.10;99.90
5962;DHT22;3007;50.770;0.250;2023-11-21T04:30:04;11.00;99.90
5962;DHT22;3007;50.770;0.250;2023-11-21T04:32:32;11.10;99.90
5962;DHT22;3007;50.770;0.250;2023-11-21T04:34:59;11.10;99.90
5962;DHT22;3007;50.770;0.250;2023-11-21T04:37:26;11.10;99.90
5962;DHT22;3007;50.770;0.250;2023-11-21T04:39:52;11.10;99.90
5962;DHT22;3007;50.770;0.250;2023-11-21T04:42:21;11.60;99.90
5962;DHT22;3007;50.770;0.250;2023-11-21T04:44:48;11.10;99.90
5962;DHT22;3007;50.770;0.250;2023-11-21T04:47:15;11.10;99.90
5962;DHT22;3007;50.770;0.250;2023-11-21T04:49:43;11.10;99.90
5962;DHT22;3007;50.770;0.250;2023-11-21T04:52:12;11.10;99.90
5962;DHT22;3007;50.770;0.250;2023-11-21T04:54:39;11.10;99.90
5962;DHT22;3007;50.770;0.250;2023-11-21T04:57:06;11.10;99.90
5962;DHT22;3007;50.770;0.250;2023-11-21T04:59:35;11.10;99.90
5962;DHT22;3007;50.770;0.250;2023-11-21T05:02:02;11.10;99.90
5962;DHT22;3007;50.770;0.250;2023-11-21T05:04:31;11.10;99.90
5962;DHT22;3007;50.770;0.250;2023-11-21T05:06:58;11.00;99.90
5962;DHT22;3007;50.770;0.250;2023-11-21T05:09:26;11.10;99.90
5962;DHT22;3007;50.770;0.250;2023-11-21T05:11:57;11.10;99.90
5962;DHT22;3007;50.770;0.250;2023-11-21T05:14:25;11.10;99.90
5962;DHT22;3007;50.770;0.250;2023-11-21T05:16:54;11.10;99.90
5962;DHT22;3007;50.770;0.250;2023-11-21T05:19:21;11.10;99.90
5962;DHT22;3007;50.770;0.250;2023-11-21T05:21:48;11.10;99.90
5962;DHT22;3007;50.770;0.250;2023-11-21T05:24:15;11.10;99.90
5962;DHT22;3007;50.770;0.250;2023-11-21T05:26:42;11.10;99.90
5962;DHT22;3007;50.770;0.250;2023-11-21T05:29:09;11.10;99.90
5962;DHT22;3007;50.770;0.250;2023-11-21T05:31:36;11.10;99.90
5962;DHT22;3007;50.770;0.250;2023-11-21T05:34:04;11.20;99.90
5962;DHT22;3007;50.770;0.250;2023-11-21T05:36:31;11.10;99.90
5962;DHT22;3007;50.770;0.250;2023-11-21T05:38:59;11.10;99.90
5962;DHT22;3007;50.770;0.250;2023-11-21T05:41:26;11.10;99.90
5962;DHT22;3007;50.770;0.250;2023-11-21T05:43:53;11.10;99.90
5962;DHT22;3007;50.770;0.250;2023-11-21T05:46:20;11.10;99.90
5962;DHT22;3007;50.770;0.250;2023-11-21T05:48:47;11.40;99.90
5962;DHT22;3007;50.770;0.250;2023-11-21T05:51:15;11.10;99.90
5962;DHT22;3007;50.770;0.250;2023-11-21T05:53:43;11.10;99.90
5962;DHT22;3007;50.770;0.250;2023-11-21T05:56:10;11.00;99.90
5962;DHT22;3007;50.770;0.250;2023-11-21T05:58:37;11.00;99.90
5962;DHT22;3007;50.770;0.250;2023-11-21T06:01:05;11.00;99.90
5962;DHT22;3007;50.770;0.250;2023-11-21T06:03:33;11.10;99.90
5962;DHT22;3007;50.770;0.250;2023-11-21T06:06:00;11.00;99.90
5962;DHT22;3007;50.770;0.250;2023-11-21T06:08:28;11.00;99.90
5962;DHT22;3007;50.770;0.250;2023-11-21T06:10:55;11.00;99.90
5962;DHT22;3007;50.770;0.250;2023-11-21T06:13:22;11.00;99.90
5962;DHT22;3007;50.770;0.250;2023-11-21T06:15:50;11.00;99.90
5962;DHT22;3007;50.770;0.250;2023-11-21T06:18:17;11.30;99.90
5962;DHT22;3007;50.770;0.250;2023-11-21T06:20:45;11.00;99.90
5962;DHT22;3007;50.770;0.250;2023-11-21T06:23:12;10.90;99.90
5962;DHT22;3007;50.770;0.250;2023-11-21T06:25:41;11.00;99.90
5962;DHT22;3007;50.770;0.250;2023-11-21T06:28:08;10.90;99.90
5962;DHT22;3007;50.770;0.250;2023-11-21T06:30:36;10.90;99.90
5962;DHT22;3007;50.770;0.250;2023-11-21T06:33:03;10.90;99.90
5962;DHT22;3007;50.770;0.250;2023-11-21T06:35:32;10.90;99.90
5962;DHT22;3007;50.770;0.250;2023-11-21T06:38:00;10.90;99.90
5962;DHT22;3007;50.770;0.250;2023-11-21T06:40:28;10.90;99.90
5962;DHT22;3007;50.770;0.250;2023-11-21T06:42:57;10.90;99.90
5962;DHT22;3007;50.770;0.250;2023-11-21T06:45:25;10.90;99.90
5962;DHT22;3007;50.770;0.250;2023-11-21T06:47:52;10.90;99.90
5962;DHT22;3007;50.770;0.250;2023-11-21T06:50:19;10.90;99.90
5962;DHT22;3007;50.770;0.250;2023-11-21T06:52:47;10.90;99.90
5962;DHT22;3007;50.770;0.250;2023-11-21T06:55:14;10.80;99.90
5962;DHT22;3007;50.770;0.250;2023-11-21T06:57:41;10.80;99.90
5962;DHT22;3007;50.770;0.250;2023-11-21T07:00:11;10.80;99.90
5962;DHT22;3007;50.770;0.250;2023-11-21T07:02:38;10.80;99.90
5962;DHT22;3007;50.770;0.250;2023-11-21T07:05:06;10.80;99.90
5962;DHT22;3007;50.770;0.250;2023-11-21T07:07:33;10.80;99.90
5962;DHT22;3007;50.770;0.250;2023-11-21T07:10:03;10.80;99.90
5962;DHT22;3007;50.770;0.250;2023-11-21T07:12:31;10.80;99.90
5962;DHT22;3007;50.770;0.250;2023-11-21T07:14:58;10.80;99.90
5962;DHT22;3007;50.770;0.250;2023-11-21T07:17:26;10.80;99.90
5962;DHT22;3007;50.770;0.250;2023-11-21T07:19:53;10.80;99.90
5962;DHT22;3007;50.770;0.250;2023-11-21T07:22:20;10.80;99.90
5962;DHT22;3007;50.770;0.250;2023-11-21T07:24:48;10.80;99.90
5962;DHT22;3007;50.770;0.250;2023-11-21T07:27:17;10.80;99.90
5962;DHT22;3007;50.770;0.250;2023-11-21T07:29:44;10.70;99.90
5962;DHT22;3007;50.770;0.250;2023-11-21T07:32:11;10.70;99.90
5962;DHT22;3007;50.770;0.250;2023-11-21T07:34:40;10.70;99.90
5962;DHT22;3007;50.770;0.250;2023-11-21T07:37:07;10.80;99.90
5962;DHT22;3007;50.770;0.250;2023-11-21T07:39:34;10.80;99.90
5962;DHT22;3007;50.770;0.250;2023-11-21T07:42:01;10.70;99.90
5962;DHT22;3007;50.770;0.250;2023-11-21T07:44:29;10.70;99.90
5962;DHT22;3007;50.770;0.250;2023-11-21T07:46:56;10.70;99.90
5962;DHT22;3007;50.770;0.250;2023-11-21T07:49:23;10.60;99.90
5962;DHT22;3007;50.770;0.250;2023-11-21T07:51:51;10.60;99.90
5962;DHT22;3007;50.770;0.250;2023-11-21T07:54:18;10.60;99.90
5962;DHT22;3007;50.770;0.250;2023-11-21T07:56:46;10.70;99.90
5962;DHT22;3007;50.770;0.250;2023-11-21T07:59:13;10.60;99.90
5962;DHT22;3007;50.770;0.250;2023-11-21T08:01:40;10.60;99.90
5962;DHT22;3007;50.770;0.250;2023-11-21T08:04:08;10.60;99.90
5962;DHT22;3007;50.770;0.250;2023-11-21T08:06:35;10.60;99.90
5962;DHT22;3007;50.770;0.250;2023-11-21T08:09:03;10.70;99.90
5962;DHT22;3007;50.770;0.250;2023-11-21T08:11:30;10.60;99.90
5962;DHT22;3007;50.770;0.250;2023-11-21T08:13:58;10.70;99.90
5962;DHT22;3007;50.770;0.250;2023-11-21T08:16:25;10.70;99.90
5962;DHT22;3007;50.770;0.250;2023-11-21T08:18:53;10.70;99.90
5962;DHT22;3007;50.770;0.250;2023-11-21T08:21:20;10.70;99.90
5962;DHT22;3007;50.770;0.250;2023-11-21T08:23:49;10.70;99.90
5962;DHT22;3007;50.770;0.250;2023-11-21T08:26:20;10.80;99.90
5962;DHT22;3007;50.770;0.250;2023-11-21T08:28:47;10.80;99.90
5962;DHT22;3007;50.770;0.250;2023-11-21T08:31:14;10.80;99.90
5962;DHT22;3007;50.770;0.250;2023-11-21T08:33:41;10.80;99.90
5962;DHT22;3007;50.770;0.250;2023-11-21T08:36:09;10.80;99.90
5962;DHT22;3007;50.770;0.250;2023-11-21T08:38:36;10.80;99.90
5962;DHT22;3007;50.770;0.250;2023-11-21T08:41:05;10.80;99.90
5962;DHT22;3007;50.770;0.250;2023-11-21T08:43:35;10.80;99.90
5962;DHT22;3007;50.770;0.250;2023-11-21T08:46:05;10.80;99.90
5962;DHT22;3007;50.770;0.250;2023-11-21T08:48:35;10.80;99.90
5962;DHT22;3007;50.770;0.250;2023-11-21T08:51:02;10.80;99.90
5962;DHT22;3007;50.770;0.250;2023-11-21T08:53:29;10.80;99.90
5962;DHT22;3007;50.770;0.250;2023-11-21T08:55:56;10.80;99.90
5962;DHT22;3007;50.770;0.250;2023-11-21T08:58:23;10.90;99.90
5962;DHT22;3007;50.770;0.250;2023-11-21T09:00:51;10.90;99.90
5962;DHT22;3007;50.770;0.250;2023-11-21T09:03:18;10.90;99.90
5962;DHT22;3007;50.770;0.250;2023-11-21T09:05:45;11.50;99.90
5962;DHT22;3007;50.770;0.250;2023-11-21T09:08:11;10.90;99.90
5962;DHT22;3007;50.770;0.250;2023-11-21T09:10:38;10.90;99.90
5962;DHT22;3007;50.770;0.250;2023-11-21T09:13:05;10.80;99.90
5962;DHT22;3007;50.770;0.250;2023-11-21T09:15:34;10.80;99.90
5962;DHT22;3007;50.770;0.250;2023-11-21T09:18:02;10.80;99.90
5962;DHT22;3007;50.770;0.250;2023-11-21T09:20:30;10.80;99.90
5962;DHT22;3007;50.770;0.250;2023-11-21T09:22:57;10.90;99.90
5962;DHT22;3007;50.770;0.250;2023-11-21T09:25:24;10.90;99.90
5962;DHT22;3007;50.770;0.250;2023-11-21T09:27:51;10.90;99.90
5962;DHT22;3007;50.770;0.250;2023-11-21T09:30:18;10.90;99.90
5962;DHT22;3007;50.770;0.250;2023-11-21T09:32:45;10.90;99.90
5962;DHT22;3007;50.770;0.250;2023-11-21T09:35:14;10.90;99.90
5962;DHT22;3007;50.770;0.250;2023-11-21T09:37:41;10.90;99.90
5962;DHT22;3007;50.770;0.250;2023-11-21T09:40:11;10.90;99.90
5962;DHT22;3007;50.770;0.250;2023-11-21T09:42:40;11.00;99.90
5962;DHT22;3007;50.770;0.250;2023-11-21T09:45:15;11.00;99.90
5962;DHT22;3007;50.770;0.250;2023-11-21T09:47:43;11.10;99.90
5962;DHT22;3007;50.770;0.250;2023-11-21T09:50:11;11.10;99.90
5962;DHT22;3007;50.770;0.250;2023-11-21T09:52:48;11.10;99.90
5962;DHT22;3007;50.770;0.250;2023-11-21T09:55:17;11.10;99.90
5962;DHT22;3007;50.770;0.250;2023-11-21T09:57:47;11.10;99.90
5962;DHT22;3007;50.770;0.250;2023-11-21T10:00:16;11.00;99.90
5962;DHT22;3007;50.770;0.250;2023-11-21T10:02:45;11.00;99.90
5962;DHT22;3007;50.770;0.250;2023-11-21T10:05:16;11.10;99.90
5962;DHT22;3007;50.770;0.250;2023-11-21T10:07:44;11.10;99.90
5962;DHT22;3007;50.770;0.250;2023-11-21T10:10:13;11.10;99.90
5962;DHT22;3007;50.770;0.250;2023-11-21T10:12:42;11.20;99.90
5962;DHT22;3007;50.770;0.250;2023-11-21T10:15:11;11.30;99.90
5962;DHT22;3007;50.770;0.250;2023-11-21T10:17:41;11.30;99.90
5962;DHT22;3007;50.770;0.250;2023-11-21T10:20:11;11.20;99.90
5962;DHT22;3007;50.770;0.250;2023-11-21T10:22:39;11.30;99.90
5962;DHT22;3007;50.770;0.250;2023-11-21T10:25:09;11.30;99.90
5962;DHT22;3007;50.770;0.250;2023-11-21T10:27:37;11.40;99.90
5962;DHT22;3007;50.770;0.250;2023-11-21T10:30:05;11.50;99.90
5962;DHT22;3007;50.770;0.250;2023-11-21T10:32:33;11.50;99.90
5962;DHT22;3007;50.770;0.250;2023-11-21T10:35:00;11.50;99.90
5962;DHT22;3007;50.770;0.250;2023-11-21T10:37:32;11.50;99.90
5962;DHT22;3007;50.770;0.250;2023-11-21T10:39:59;11.30;99.90
5962;DHT22;3007;50.770;0.250;2023-11-21T10:42:27;11.30;99.90
5962;DHT22;3007;50.770;0.250;2023-11-21T10:44:55;11.40;99.90
5962;DHT22;3007;50.770;0.250;2023-11-21T10:47:21;11.40;99.90
5962;DHT22;3007;50.770;0.250;2023-11-21T10:49:49;11.40;99.90
5962;DHT22;3007;50.770;0.250;2023-11-21T10:52:18;11.50;99.90
5962;DHT22;3007;50.770;0.250;2023-11-21T10:54:46;11.40;99.90
5962;DHT22;3007;50.770;0.250;2023-11-21T10:57:17;11.40;99.90
5962;DHT22;3007;50.770;0.250;2023-11-21T10:59:47;11.40;99.90
5962;DHT22;3007;50.770;0.250;2023-11-21T11:02:21;10.50;99.90
5962;DHT22;3007;50.770;0.250;2023-11-21T11:04:52;11.40;99.90
5962;DHT22;3007;50.770;0.250;2023-11-21T11:07:21;11.40;99.90
5962;DHT22;3007;50.770;0.250;2023-11-21T11:09:53;11.40;99.90
5962;DHT22;3007;50.770;0.250;2023-11-21T11:12:20;11.40;99.90
5962;DHT22;3007;50.770;0.250;2023-11-21T11:14:48;11.40;99.90
5962;DHT22;3007;50.770;0.250;2023-11-21T11:17:15;11.30;99.90
5962;DHT22;3007;50.770;0.250;2023-11-21T11:19:45;11.30;99.90
5962;DHT22;3007;50.770;0.250;2023-11-21T11:22:19;11.30;99.90
5962;DHT22;3007;50.770;0.250;2023-11-21T11:25:14;11.30;99.90
5962;DHT22;3007;50.770;0.250;2023-11-21T11:27:54;11.30;99.90
5962;DHT22;3007;50.770;0.250;2023-11-21T11:30:37;11.30;99.90
5962;DHT22;3007;50.770;0.250;2023-11-21T11:33:11;11.40;99.90
5962;DHT22;3007;50.770;0.250;2023-11-21T11:35:49;11.50;99.90
5962;DHT22;3007;50.770;0.250;2023-11-21T11:38:20;11.60;99.90
5962;DHT22;3007;50.770;0.250;2023-11-21T11:40:47;11.70;99.90
5962;DHT22;3007;50.770;0.250;2023-11-21T11:43:24;11.70;99.90
5962;DHT22;3007;50.770;0.250;2023-11-21T11:45:55;11.70;99.90
5962;DHT22;3007;50.770;0.250;2023-11-21T11:48:24;11.70;99.90
5962;DHT22;3007;50.770;0.250;2023-11-21T11:51:02;11.70;99.90
5962;DHT22;3007;50.770;0.250;2023-11-21T11:53:35;11.80;99.90
5962;DHT22;3007;50.770;0.250;2023-11-21T11:56:21;11.80;99.90
5962;DHT22;3007;50.770;0.250;2023-11-21T11:58:49;11.90;99.90
5962;DHT22;3007;50.770;0.250;2023-11-21T12:01:18;11.90;99.90
5962;DHT22;3007;50.770;0.250;2023-11-21T12:04:23;11.80;99.90
5962;DHT22;3007;50.770;0.250;2023-11-21T12:06:56;11.80;99.90
5962;DHT22;3007;50.770;0.250;2023-11-21T12:09:25;11.80;99.90
5962;DHT22;3007;50.770;0.250;2023-11-21T12:11:53;11.70;99.90
5962;DHT22;3007;50.770;0.250;2023-11-21T12:14:22;11.70;99.90
5962;DHT22;3007;50.770;0.250;2023-11-21T12:16:51;11.70;99.90
5962;DHT22;3007;50.770;0.250;2023-11-21T12:19:19;11.70;99.90
5962;DHT22;3007;50.770;0.250;2023-11-21T12:21:47;11.60;99.90
5962;DHT22;3007;50.770;0.250;2023-11-21T12:24:14;11.70;99.90
5962;DHT22;3007;50.770;0.250;2023-11-21T12:26:42;11.70;99.90
5962;DHT22;3007;50.770;0.250;2023-11-21T12:29:09;11.80;99.90
5962;DHT22;3007;50.770;0.250;2023-11-21T12:31:36;11.70;99.90
5962;DHT22;3007;50.770;0.250;2023-11-21T12:34:04;11.80;99.90
5962;DHT22;3007;50.770;0.250;2023-11-21T12:36:32;11.80;99.90
5962;DHT22;3007;50.770;0.250;2023-11-21T12:39:00;12.30;99.90
5962;DHT22;3007;50.770;0.250;2023-11-21T12:41:28;11.80;99.90
5962;DHT22;3007;50.770;0.250;2023-11-21T12:43:56;11.80;99.90
5962;DHT22;3007;50.770;0.250;2023-11-21T12:46:23;11.80;99.90
5962;DHT22;3007;50.770;0.250;2023-11-21T12:48:51;11.80;99.90
5962;DHT22;3007;50.770;0.250;2023-11-21T12:51:21;11.80;99.90
5962;DHT22;3007;50.770;0.250;2023-11-21T12:53:48;11.80;99.90
5962;DHT22;3007;50.770;0.250;2023-11-21T12:56:15;11.80;99.90
5962;DHT22;3007;50.770;0.250;2023-11-21T12:58:45;11.80;99.90
5962;DHT22;3007;50.770;0.250;2023-11-21T13:01:13;11.80;99.90
5962;DHT22;3007;50.770;0.250;2023-11-21T13:03:46;11.70;99.90
5962;DHT22;3007;50.770;0.250;2023-11-21T13:06:14;11.80;99.90
5962;DHT22;3007;50.770;0.250;2023-11-21T13:08:44;11.80;99.90
5962;DHT22;3007;50.770;0.250;2023-11-21T13:11:12;11.80;99.90
5962;DHT22;3007;50.770;0.250;2023-11-21T13:13:41;11.70;99.90
5962;DHT22;3007;50.770;0.250;2023-11-21T13:16:09;11.70;99.90
5962;DHT22;3007;50.770;0.250;2023-11-21T13:18:36;11.70;99.90
5962;DHT22;3007;50.770;0.250;2023-11-21T13:21:05;11.70;99.90
5962;DHT22;3007;50.770;0.250;2023-11-21T13:23:36;11.70;99.90
5962;DHT22;3007;50.770;0.250;2023-11-21T13:26:05;11.70;99.90
5962;DHT22;3007;50.770;0.250;2023-11-21T13:28:32;11.80;99.90
5962;DHT22;3007;50.770;0.250;2023-11-21T13:33:29;11.70;99.90
5962;DHT22;3007;50.770;0.250;2023-11-21T13:35:58;11.70;99.90
5962;DHT22;3007;50.770;0.250;2023-11-21T13:38:27;11.90;99.90
5962;DHT22;3007;50.770;0.250;2023-11-21T13:40:58;11.80;99.90
5962;DHT22;3007;50.770;0.250;2023-11-21T13:43:26;11.80;99.90
5962;DHT22;3007;50.770;0.250;2023-11-21T13:45:54;11.70;99.90
5962;DHT22;3007;50.770;0.250;2023-11-21T13:48:26;11.60;99.90
5962;DHT22;3007;50.770;0.250;2023-11-21T13:50:59;11.60;99.90
5962;DHT22;3007;50.770;0.250;2023-11-21T13:53:36;11.70;99.90
5962;DHT22;3007;50.770;0.250;2023-11-21T13:56:05;11.70;99.90
5962;DHT22;3007;50.770;0.250;2023-11-21T13:58:33;11.60;99.90
5962;DHT22;3007;50.770;0.250;2023-11-21T14:01:10;11.60;99.90
5962;DHT22;3007;50.770;0.250;2023-11-21T14:03:50;11.60;99.90
5962;DHT22;3007;50.770;0.250;2023-11-21T14:06:23;11.60;99.90
5962;DHT22;3007;50.770;0.250;2023-11-21T14:08:58;11.50;99.90
5962;DHT22;3007;50.770;0.250;2023-11-21T14:11:28;11.60;99.90
5962;DHT22;3007;50.770;0.250;2023-11-21T14:13:56;11.60;99.90
5962;DHT22;3007;50.770;0.250;2023-11-21T14:16:24;11.60;99.90
5962;DHT22;3007;50.770;0.250;2023-11-21T14:18:51;11.60;99.90
5962;DHT22;3007;50.770;0.250;2023-11-21T14:21:24;11.60;99.90
5962;DHT22;3007;50.770;0.250;2023-11-21T14:23:51;11.60;99.90
5962;DHT22;3007;50.770;0.250;2023-11-21T14:26:20;11.60;99.90
5962;DHT22;3007;50.770;0.250;2023-11-21T14:28:46;11.70;99.90
5962;DHT22;3007;50.770;0.250;2023-11-21T14:31:15;11.70;99.90
5962;DHT22;3007;50.770;0.250;2023-11-21T14:33:43;11.70;99.90
5962;DHT22;3007;50.770;0.250;2023-11-21T14:36:10;11.70;99.90
5962;DHT22;3007;50.770;0.250;2023-11-21T14:38:37;11.70;99.90
5962;DHT22;3007;50.770;0.250;2023-11-21T14:41:05;11.70;99.90
5962;DHT22;3007;50.770;0.250;2023-11-21T14:43:33;11.70;99.90
5962;DHT22;3007;50.770;0.250;2023-11-21T14:46:01;11.70;99.90
5962;DHT22;3007;50.770;0.250;2023-11-21T14:48:30;11.70;99.90
5962;DHT22;3007;50.770;0.250;2023-11-21T14:51:08;11.60;99.90
5962;DHT22;3007;50.770;0.250;2023-11-21T14:53:56;11.60;99.90
5962;DHT22;3007;50.770;0.250;2023-11-21T14:56:26;11.60;99.90
5962;DHT22;3007;50.770;0.250;2023-11-21T14:58:57;11.60;99.90
5962;DHT22;3007;50.770;0.250;2023-11-21T15:01:23;11.60;99.90
5962;DHT22;3007;50.770;0.250;2023-11-21T15:04:09;11.60;99.90
5962;DHT22;3007;50.770;0.250;2023-11-21T15:06:49;11.50;99.90
5962;DHT22;3007;50.770;0.250;2023-11-21T15:09:15;11.40;99.90
5962;DHT22;3007;50.770;0.250;2023-11-21T15:12:02;11.40;99.90
5962;DHT22;3007;50.770;0.250;2023-11-21T15:14:39;11.30;99.90
5962;DHT22;3007;50.770;0.250;2023-11-21T15:17:06;11.30;99.90
5962;DHT22;3007;50.770;0.250;2023-11-21T15:19:34;11.30;99.90
5962;DHT22;3007;50.770;0.250;2023-11-21T15:22:02;11.40;99.90
5962;DHT22;3007;50.770;0.250;2023-11-21T15:24:28;11.40;99.90
5962;DHT22;3007;50.770;0.250;2023-11-21T15:26:55;11.40;99.90
5962;DHT22;3007;50.770;0.250;2023-11-21T15:29:22;11.50;99.90
5962;DHT22;3007;50.770;0.250;2023-11-21T15:31:51;11.50;99.90
5962;DHT22;3007;50.770;0.250;2023-11-21T15:34:22;11.50;99.90
5962;DHT22;3007;50.770;0.250;2023-11-21T15:36:50;11.50;99.90
5962;DHT22;3007;50.770;0.250;2023-11-21T15:39:19;11.50;99.90
5962;DHT22;3007;50.770;0.250;2023-11-21T15:41:49;11.50;99.90
5962;DHT22;3007;50.770;0.250;2023-11-21T15:44:16;11.50;99.90
5962;DHT22;3007;50.770;0.250;2023-11-21T15:46:43;11.50;99.90
5962;DHT22;3007;50.770;0.250;2023-11-21T15:49:10;11.50;99.90
5962;DHT22;3007;50.770;0.250;2023-11-21T15:51:39;11.50;99.90
5962;DHT22;3007;50.770;0.250;2023-11-21T15:54:08;11.40;99.90
5962;DHT22;3007;50.770;0.250;2023-11-21T15:56:35;11.40;99.90
5962;DHT22;3007;50.770;0.250;2023-11-21T15:59:02;11.30;99.90
5962;DHT22;3007;50.770;0.250;2023-11-21T16:01:30;11.30;99.90
5962;DHT22;3007;50.770;0.250;2023-11-21T16:03:57;11.20;99.90
5962;DHT22;3007;50.770;0.250;2023-11-21T16:06:26;11.10;99.90
5962;DHT22;3007;50.770;0.250;2023-11-21T16:08:54;11.10;99.90
5962;DHT22;3007;50.770;0.250;2023-11-21T16:11:25;11.10;99.90
5962;DHT22;3007;50.770;0.250;2023-11-21T16:13:52;11.10;99.90